createdAt,value
2017-10-13T00:01:17.910Z,8.63
2017-10-13T00:03:45.396Z,11.30
2017-10-13T00:06:13.636Z,7.73
2017-10-13T00:08:41.129Z,4.10
2017-10-13T00:11:08.595Z,6.28
2017-10-13T00:13:36.108Z,11.63
2017-10-13T00:16:03.584Z,9.73
2017-10-13T00:18:31.111Z,7.57
2017-10-13T00:20:58.605Z,5.72
2017-10-13T00:23:26.083Z,13.55
2017-10-13T00:25:53.583Z,5.97
2017-10-13T00:28:21.069Z,8.30
2017-10-13T00:30:48.559Z,5.40
2017-10-13T00:33:16.802Z,4.57
2017-10-13T00:35:44.326Z,9.50
2017-10-13T00:38:11.809Z,4.80
2017-10-13T00:40:39.300Z,4.18
2017-10-13T00:43:07.548Z,10.23
2017-10-13T00:45:35.036Z,10.38
2017-10-13T00:48:03.308Z,13.00
2017-10-13T00:50:31.540Z,5.15
2017-10-13T00:52:59.037Z,7.47
2017-10-13T00:55:27.287Z,5.97
2017-10-13T00:57:54.790Z,8.68
2017-10-13T01:00:23.039Z,14.18
2017-10-13T01:02:50.561Z,10.15
2017-10-13T01:05:18.047Z,5.05
2017-10-13T01:07:45.548Z,7.43
2017-10-13T01:10:13.799Z,8.43
2017-10-13T01:12:41.275Z,5.87
2017-10-13T01:15:09.531Z,13.45
2017-10-13T01:17:37.449Z,5.62
2017-10-13T01:20:04.953Z,5.47
2017-10-13T01:22:32.404Z,5.07
2017-10-13T01:24:59.887Z,9.27
2017-10-13T01:27:27.389Z,6.65
2017-10-13T01:29:54.864Z,8.80
2017-10-13T01:32:22.376Z,11.57
2017-10-13T01:34:50.607Z,6.87
2017-10-13T01:37:18.108Z,10.20
2017-10-13T01:39:46.336Z,5.85
2017-10-13T01:42:13.796Z,13.18
2017-10-13T01:44:41.321Z,17.30
2017-10-13T01:47:08.787Z,18.23
2017-10-13T01:49:36.303Z,17.17
2017-10-13T01:52:03.778Z,15.32
2017-10-13T01:54:32.023Z,20.35
2017-10-13T01:56:59.529Z,17.98
2017-10-13T01:59:27.049Z,14.85
2017-10-13T02:01:54.542Z,13.90
2017-10-13T02:04:22.005Z,14.00
2017-10-13T02:06:49.476Z,25.92
2017-10-13T02:09:16.952Z,11.50
2017-10-13T02:11:44.443Z,13.68
2017-10-13T02:14:11.928Z,14.48
2017-10-13T02:16:40.232Z,18.70
2017-10-13T02:19:07.717Z,19.90
2017-10-13T02:21:35.179Z,17.12
2017-10-13T02:24:02.676Z,14.45
2017-10-13T02:26:30.910Z,11.23
2017-10-13T02:28:58.407Z,10.35
2017-10-13T02:31:26.658Z,9.93
2017-10-13T02:33:54.137Z,11.80
2017-10-13T02:36:22.393Z,15.80
2017-10-13T02:38:49.863Z,18.55
2017-10-13T02:41:17.336Z,22.73
2017-10-13T02:43:45.587Z,11.02
2017-10-13T02:46:13.081Z,12.32
2017-10-13T02:48:40.588Z,18.62
2017-10-13T02:51:08.052Z,19.52
2017-10-13T02:53:35.535Z,11.10
2017-10-13T02:56:03.012Z,10.50
2017-10-13T02:58:31.269Z,6.15
2017-10-13T03:00:58.720Z,6.72
2017-10-13T03:03:26.207Z,6.78
2017-10-13T03:05:54.450Z,4.62
2017-10-13T03:08:21.934Z,5.70
2017-10-13T03:10:50.212Z,5.85
2017-10-13T03:13:18.456Z,14.02
2017-10-13T03:15:45.944Z,6.87
2017-10-13T03:18:14.192Z,5.40
2017-10-13T03:20:41.677Z,17.40
2017-10-13T03:23:09.912Z,8.85
2017-10-13T03:25:37.396Z,8.57
2017-10-13T03:28:04.884Z,11.40
2017-10-13T03:30:32.364Z,7.55
2017-10-13T03:32:59.854Z,6.78
2017-10-13T03:35:27.320Z,8.63
2017-10-13T03:37:54.812Z,5.40
2017-10-13T03:40:23.041Z,7.68
2017-10-13T03:42:50.499Z,5.47
2017-10-13T03:45:18.008Z,7.62
2017-10-13T03:47:46.248Z,4.62
2017-10-13T03:50:13.760Z,8.75
2017-10-13T03:52:41.227Z,5.57
2017-10-13T03:55:08.704Z,15.25
2017-10-13T03:57:36.203Z,5.87
2017-10-13T04:00:04.436Z,8.48
2017-10-13T04:02:31.919Z,7.43
2017-10-13T06:35:08.706Z,5.05
2017-10-13T06:37:36.183Z,8.20
2017-10-13T06:40:03.664Z,10.35
2017-10-13T06:42:31.151Z,5.03
2017-10-13T06:44:59.403Z,7.90
2017-10-13T06:47:26.875Z,7.95
2017-10-13T06:49:55.110Z,6.12
2017-10-13T06:52:22.595Z,8.30
2017-10-13T06:54:50.059Z,7.62
2017-10-13T06:57:17.536Z,7.95
2017-10-13T06:59:45.772Z,8.45
2017-10-13T07:02:14.036Z,4.93
2017-10-13T07:04:41.494Z,9.65
2017-10-13T07:07:08.992Z,7.22
2017-10-13T07:09:37.237Z,11.05
2017-10-13T07:12:04.720Z,11.65
2017-10-13T07:14:32.190Z,15.75
2017-10-13T07:17:00.440Z,9.43
2017-10-13T07:19:27.930Z,8.10
2017-10-13T07:21:56.163Z,8.55
2017-10-13T07:24:23.650Z,5.87
2017-10-13T07:26:51.892Z,4.85
2017-10-13T07:29:20.155Z,4.62
2017-10-13T07:31:47.615Z,3.87
2017-10-13T07:34:15.141Z,4.62
2017-10-13T07:36:42.624Z,12.55
2017-10-13T07:39:10.095Z,6.60
2017-10-13T07:41:37.594Z,5.90
2017-10-13T07:44:05.854Z,6.53
2017-10-13T07:46:33.365Z,5.83
2017-10-13T07:49:00.857Z,3.03
2017-10-13T07:51:28.348Z,5.93
2017-10-13T07:53:55.812Z,3.77
2017-10-13T07:56:23.421Z,2.63
2017-10-13T07:58:50.908Z,7.33
2017-10-13T08:01:18.394Z,5.00
2017-10-13T08:03:46.638Z,4.10
2017-10-13T08:06:14.152Z,3.60
2017-10-13T08:08:41.611Z,5.57
2017-10-13T08:11:09.084Z,6.53
2017-10-13T08:13:36.604Z,3.57
2017-10-13T08:16:04.895Z,9.67
2017-10-13T08:18:33.139Z,2.67
2017-10-13T08:21:00.635Z,7.13
2017-10-13T08:23:28.868Z,5.57
2017-10-13T08:25:56.388Z,3.53
2017-10-13T08:28:23.868Z,8.43
2017-10-13T08:30:51.363Z,14.83
2017-10-13T08:33:19.629Z,6.63
2017-10-13T08:35:47.144Z,5.50
2017-10-13T08:38:14.636Z,5.07
2017-10-13T08:40:42.116Z,8.93
2017-10-13T08:43:09.595Z,8.70
2017-10-13T08:45:37.818Z,18.10
2017-10-13T08:48:05.299Z,9.10
2017-10-13T08:50:32.818Z,7.53
2017-10-13T08:53:00.312Z,8.80
2017-10-13T08:55:27.789Z,12.50
2017-10-13T08:57:56.043Z,8.57
2017-10-13T09:00:23.542Z,10.00
2017-10-13T09:02:51.039Z,12.47
2017-10-13T09:05:18.631Z,9.57
2017-10-13T09:07:46.116Z,7.97
2017-10-13T09:10:14.350Z,13.10
2017-10-13T09:12:41.857Z,9.50
2017-10-13T09:15:10.100Z,9.83
2017-10-13T09:17:37.591Z,7.93
2017-10-13T09:20:05.064Z,7.10
2017-10-13T09:22:38.304Z,7.23
2017-10-13T09:25:05.777Z,11.50
2017-10-13T09:27:34.012Z,7.13
2017-10-13T09:30:01.519Z,3.20
2017-10-13T09:32:29.747Z,2.30
2017-10-13T09:34:57.249Z,4.97
2017-10-13T09:37:24.720Z,2.50
2017-10-13T09:39:52.956Z,4.03
2017-10-13T09:42:20.463Z,2.23
2017-10-13T09:44:47.949Z,2.63
2017-10-13T09:47:15.418Z,3.60
2017-10-13T09:49:42.883Z,5.77
2017-10-13T09:52:10.363Z,3.10
2017-10-13T09:54:37.840Z,8.57
2017-10-13T09:57:06.156Z,5.63
2017-10-13T09:59:33.636Z,4.57
2017-10-13T10:02:01.105Z,2.20
2017-10-13T10:04:28.568Z,3.43
2017-10-13T10:06:56.051Z,2.37
2017-10-13T10:09:24.285Z,2.63
2017-10-13T10:11:51.798Z,1.60
2017-10-13T10:14:20.072Z,1.57
2017-10-13T10:16:48.311Z,2.03
2017-10-13T10:19:15.809Z,2.30
2017-10-13T10:21:44.068Z,9.23
2017-10-13T10:24:11.529Z,3.03
2017-10-13T10:26:39.021Z,2.80
2017-10-13T10:29:06.494Z,2.70
2017-10-13T10:31:33.966Z,2.70
2017-10-13T10:34:02.299Z,4.23
2017-10-13T10:36:30.556Z,1.93
2017-10-13T10:38:58.090Z,13.03
2017-10-13T10:41:25.556Z,1.50
2017-10-13T10:43:53.069Z,1.70
2017-10-13T10:46:20.525Z,3.30
2017-10-13T10:48:48.013Z,7.63
2017-10-13T10:51:15.495Z,1.70
2017-10-13T10:53:42.973Z,1.60
2017-10-13T10:56:11.232Z,1.83
2017-10-13T10:58:38.716Z,1.60
2017-10-13T11:01:06.972Z,4.27
2017-10-13T11:03:34.437Z,2.30
2017-10-13T11:06:01.920Z,1.73
2017-10-13T11:08:30.172Z,5.03
2017-10-13T11:10:57.655Z,3.70
2017-10-13T11:13:25.159Z,2.47
2017-10-13T11:15:52.712Z,1.97
2017-10-13T11:18:20.175Z,2.30
2017-10-13T11:20:47.661Z,3.20
2017-10-13T11:23:15.172Z,1.53
2017-10-13T11:25:42.639Z,2.67
2017-10-13T11:28:10.131Z,2.10
2017-10-13T11:30:37.625Z,2.90
2017-10-13T11:33:05.089Z,2.50
2017-10-13T11:35:32.578Z,1.40
2017-10-13T11:38:00.038Z,1.97
2017-10-13T11:40:27.548Z,1.83
2017-10-13T11:42:55.850Z,1.73
2017-10-13T11:45:23.317Z,3.43
2017-10-13T11:47:50.824Z,1.60
2017-10-13T11:50:18.295Z,2.10
2017-10-13T11:52:46.529Z,2.27
2017-10-13T11:55:14.016Z,1.93
2017-10-13T11:57:41.501Z,1.70
2017-10-13T12:00:09.759Z,1.30
2017-10-13T12:02:37.214Z,2.93
2017-10-13T12:05:04.715Z,3.60
2017-10-13T12:07:32.740Z,2.30
2017-10-13T12:10:00.210Z,4.63
2017-10-13T12:12:28.443Z,2.70
2017-10-13T12:14:55.957Z,2.03
2017-10-13T12:17:24.194Z,2.70
2017-10-13T12:19:51.671Z,2.90
2017-10-13T12:22:19.177Z,2.20
2017-10-13T12:24:46.659Z,3.50
2017-10-13T12:27:14.402Z,5.77
2017-10-13T12:29:41.884Z,3.03
2017-10-13T12:32:09.364Z,2.20
2017-10-13T12:34:36.870Z,1.60
2017-10-13T12:37:04.396Z,9.60
2017-10-13T12:39:32.621Z,1.70
2017-10-13T12:42:00.101Z,1.60
2017-10-13T12:44:27.606Z,4.10
2017-10-13T12:46:55.491Z,5.90
2017-10-13T12:49:22.997Z,2.67
2017-10-13T12:51:50.464Z,1.73
2017-10-13T12:54:17.929Z,1.63
2017-10-13T12:56:45.438Z,2.50
2017-10-13T12:59:12.924Z,2.67
2017-10-13T13:01:40.409Z,5.30
2017-10-13T13:04:08.634Z,1.60
2017-10-13T13:06:36.130Z,5.97
2017-10-13T13:09:03.591Z,6.20
2017-10-13T13:11:31.075Z,3.90
2017-10-13T13:13:58.569Z,2.87
2017-10-13T13:16:26.052Z,3.40
2017-10-13T13:18:53.542Z,3.37
2017-10-13T13:21:21.799Z,1.83
2017-10-13T13:23:49.544Z,3.10
2017-10-13T13:26:17.014Z,3.40
2017-10-13T13:28:44.515Z,5.50
2017-10-13T13:31:11.991Z,3.43
2017-10-13T13:33:39.476Z,2.00
2017-10-13T13:36:06.957Z,3.67
2017-10-13T13:38:34.447Z,2.63
2017-10-13T13:41:02.705Z,1.73
2017-10-13T13:43:30.175Z,1.50
2017-10-13T13:45:58.439Z,3.67
2017-10-13T13:48:27.183Z,3.07
2017-10-13T13:50:54.650Z,2.17
2017-10-13T13:53:22.139Z,6.00
2017-10-13T13:55:50.371Z,1.57
2017-10-13T13:58:17.856Z,2.40
2017-10-13T14:00:45.327Z,3.63
2017-10-13T14:03:12.802Z,3.03
2017-10-13T14:05:41.071Z,2.10
2017-10-13T14:08:09.345Z,2.10
2017-10-13T14:10:36.828Z,2.13
2017-10-13T14:13:04.312Z,2.60
2017-10-13T14:15:31.804Z,2.27
2017-10-13T14:17:59.285Z,3.50
2017-10-13T14:20:27.546Z,1.30
2017-10-13T14:22:55.016Z,3.50
2017-10-13T14:25:23.264Z,5.70
2017-10-13T14:27:50.746Z,2.23
2017-10-13T14:30:18.230Z,1.83
2017-10-13T14:32:45.876Z,3.63
2017-10-13T14:35:14.098Z,1.33
2017-10-13T14:37:41.603Z,1.67
2017-10-13T14:40:09.080Z,3.13
2017-10-13T14:42:37.325Z,2.83
2017-10-13T14:45:04.801Z,3.27
2017-10-13T14:47:33.064Z,5.60
2017-10-13T14:50:00.540Z,7.40
2017-10-13T14:52:28.809Z,2.13
2017-10-13T14:54:57.042Z,4.00
2017-10-13T14:57:24.537Z,11.13
2017-10-13T14:59:52.020Z,3.40
2017-10-13T15:02:19.555Z,4.27
2017-10-13T15:04:47.058Z,4.00
2017-10-13T15:07:14.552Z,1.67
2017-10-13T15:09:42.036Z,6.13
2017-10-13T15:12:10.274Z,4.33
2017-10-13T15:14:37.771Z,3.00
2017-10-13T15:17:05.241Z,2.60
2017-10-13T15:19:33.524Z,4.70
2017-10-13T15:22:01.785Z,5.83
2017-10-13T15:24:29.261Z,3.23
2017-10-13T15:30:06.103Z,2.30
2017-10-13T15:32:40.171Z,3.23
2017-10-13T15:35:14.020Z,2.00
2017-10-13T15:37:41.529Z,7.37
2017-10-13T15:43:21.689Z,3.47
2017-10-13T15:45:54.947Z,4.40
2017-10-13T15:48:25.486Z,3.20
2017-10-13T15:50:58.684Z,3.20
2017-10-13T15:53:26.184Z,12.47
2017-10-13T15:55:54.414Z,10.67
2017-10-13T15:58:21.879Z,12.20
2017-10-13T16:00:49.378Z,6.80
2017-10-13T16:03:17.617Z,9.77
2017-10-13T16:05:45.105Z,14.70
2017-10-13T16:08:13.355Z,8.93
2017-10-13T16:10:40.820Z,11.43
2017-10-13T16:13:08.300Z,11.00
2017-10-13T16:15:36.552Z,19.43
2017-10-13T16:18:04.070Z,16.10
2017-10-13T16:20:31.562Z,43.57
2017-10-13T16:22:59.058Z,72.90
2017-10-13T16:25:27.330Z,79.80
2017-10-13T16:27:55.556Z,36.97
2017-10-13T16:30:23.051Z,11.33
2017-10-13T16:32:50.537Z,9.23
2017-10-13T16:35:18.807Z,10.77
2017-10-13T16:37:47.060Z,18.53
2017-10-13T16:40:14.564Z,12.73
2017-10-13T16:42:42.052Z,5.53
2017-10-13T16:45:09.540Z,11.47
2017-10-13T16:47:37.024Z,12.13
2017-10-13T16:50:04.509Z,12.10
2017-10-13T16:52:32.015Z,14.47
2017-10-13T16:54:59.509Z,25.63
2017-10-13T16:57:27.049Z,29.47
2017-10-13T16:59:55.294Z,27.03
2017-10-13T17:02:22.820Z,18.47
2017-10-13T17:04:50.276Z,14.33
2017-10-13T17:07:17.764Z,17.73
2017-10-13T17:09:45.276Z,19.30
2017-10-13T17:12:12.770Z,14.27
2017-10-13T17:14:40.249Z,5.53
2017-10-13T17:17:07.740Z,6.60
2017-10-13T17:19:35.987Z,10.00
2017-10-13T17:22:03.501Z,11.20
2017-10-13T17:24:31.029Z,4.50
2017-10-13T17:26:59.273Z,5.80
2017-10-13T17:29:26.752Z,10.80
2017-10-13T17:31:54.261Z,11.03
2017-10-13T17:34:21.740Z,7.57
2017-10-13T17:36:49.256Z,5.97
2017-10-13T17:39:16.762Z,15.63
2017-10-13T17:41:44.250Z,12.43
2017-10-13T17:44:11.774Z,6.23
2017-10-13T17:46:39.277Z,7.97
2017-10-13T17:49:07.515Z,16.43
2017-10-13T17:51:35.002Z,5.40
2017-10-13T17:54:03.252Z,4.97
2017-10-13T17:56:30.735Z,7.67
2017-10-13T17:58:58.220Z,10.23
2017-10-13T18:01:25.719Z,5.90
2017-10-13T18:03:53.205Z,8.27
2017-10-13T18:06:20.686Z,9.03
2017-10-13T18:08:48.169Z,5.10
2017-10-13T18:11:15.644Z,7.80
2017-10-13T18:13:43.208Z,11.03
2017-10-13T18:16:10.662Z,9.07
2017-10-13T18:18:38.139Z,6.77
2017-10-13T18:21:05.652Z,40.10
2017-10-13T18:23:33.129Z,23.67
2017-10-13T18:26:00.637Z,11.83
2017-10-13T18:28:28.133Z,15.10
2017-10-13T18:30:55.649Z,9.30
2017-10-13T18:33:23.162Z,10.20
2017-10-13T18:35:50.653Z,8.60
2017-10-13T18:38:18.163Z,11.53
2017-10-13T18:40:45.637Z,15.13
2017-10-13T18:43:13.119Z,17.33
2017-10-13T18:45:40.622Z,8.80
2017-10-13T18:48:08.865Z,4.73
2017-10-13T18:50:36.362Z,16.03
2017-10-13T18:53:03.842Z,9.13
2017-10-13T18:55:31.362Z,12.33
2017-10-13T18:57:58.826Z,6.60
2017-10-13T19:00:27.059Z,15.13
2017-10-13T19:02:54.586Z,6.63
2017-10-13T19:05:22.044Z,8.07
2017-10-13T19:07:49.522Z,9.80
2017-10-13T19:10:17.032Z,19.33
2017-10-13T19:12:44.496Z,12.40
2017-10-13T19:15:12.756Z,11.07
2017-10-13T19:17:40.224Z,17.10
2017-10-13T19:20:08.481Z,12.70
2017-10-13T19:22:35.998Z,13.80
2017-10-13T19:25:03.492Z,10.47
2017-10-13T19:27:30.973Z,16.03
2017-10-13T19:29:58.468Z,14.30
2017-10-13T19:32:25.957Z,9.13
2017-10-13T19:34:53.427Z,8.07
2017-10-13T19:37:20.904Z,8.93
2017-10-13T19:39:48.367Z,13.33
2017-10-13T19:42:16.873Z,9.77
2017-10-13T19:44:44.373Z,10.60
2017-10-13T19:47:11.836Z,9.10
2017-10-13T19:49:39.335Z,15.10
2017-10-13T19:52:08.171Z,18.33
2017-10-13T19:54:35.680Z,10.40
2017-10-13T19:57:03.927Z,6.53
2017-10-13T19:59:31.392Z,12.87
2017-10-13T20:01:58.899Z,14.30
2017-10-13T20:04:26.356Z,6.73
2017-10-13T20:06:53.846Z,14.30
2017-10-13T20:09:21.314Z,25.50
2017-10-13T20:11:48.808Z,40.93
2017-10-13T20:14:17.071Z,17.27
2017-10-13T20:16:44.606Z,14.67
2017-10-13T20:19:12.059Z,14.47
2017-10-13T20:21:39.537Z,19.73
2017-10-13T20:24:07.058Z,20.97
2017-10-13T20:26:34.524Z,14.00
2017-10-13T20:29:02.021Z,15.53
2017-10-13T20:31:29.480Z,8.00
2017-10-13T20:33:56.981Z,16.83
2017-10-13T20:36:24.464Z,10.20
2017-10-13T20:38:52.004Z,8.83
2017-10-13T20:41:19.478Z,15.00
2017-10-13T20:43:46.991Z,15.13
2017-10-13T20:46:15.252Z,16.37
2017-10-13T20:48:42.758Z,14.03
2017-10-13T20:51:10.227Z,7.43
2017-10-13T20:53:37.799Z,17.53
2017-10-13T20:56:05.280Z,8.03
2017-10-13T20:58:32.760Z,8.10
2017-10-13T21:01:01.032Z,7.07
2017-10-13T21:03:28.504Z,10.43
2017-10-13T21:05:56.759Z,13.07
2017-10-13T21:08:24.225Z,4.57
2017-10-13T21:10:51.728Z,7.77
2017-10-13T21:13:19.186Z,13.43
2017-10-13T21:15:46.696Z,8.70
2017-10-13T21:18:14.192Z,8.50
2017-10-13T21:20:41.649Z,10.67
2017-10-13T21:23:09.138Z,26.20
2017-10-13T21:25:36.620Z,6.20
2017-10-13T21:28:04.152Z,6.80
2017-10-13T21:30:31.644Z,7.20
2017-10-13T21:32:59.110Z,5.83
2017-10-13T21:35:26.606Z,8.93
2017-10-13T21:37:54.079Z,5.50
2017-10-13T21:40:21.573Z,9.17
2017-10-13T21:42:49.058Z,19.30
2017-10-13T21:45:17.481Z,10.33
2017-10-13T21:47:44.957Z,8.17
2017-10-13T21:50:12.441Z,6.33
2017-10-13T21:52:39.905Z,10.50
2017-10-13T21:55:08.155Z,9.50
2017-10-13T21:57:35.652Z,6.40
2017-10-13T22:00:03.922Z,6.87
2017-10-13T22:02:32.172Z,10.05
2017-10-13T22:05:05.131Z,6.57
2017-10-13T22:07:32.618Z,9.30
2017-10-13T22:10:00.373Z,8.40
2017-10-13T22:12:27.835Z,8.13
2017-10-13T22:28:01.163Z,12.35
2017-10-13T22:30:28.667Z,9.48
2017-10-13T22:32:56.161Z,18.13
2017-10-13T22:35:24.400Z,10.25
2017-10-13T22:37:51.975Z,7.20
2017-10-13T22:40:19.444Z,6.30
2017-10-13T22:42:46.939Z,4.05
2017-10-13T22:45:14.419Z,3.63
2017-10-13T22:47:41.931Z,14.40
2017-10-13T22:50:09.412Z,11.73
2017-10-13T22:52:36.922Z,4.82
2017-10-13T22:55:04.440Z,5.80
2017-10-13T22:57:31.907Z,16.05
2017-10-13T22:59:59.392Z,9.05
2017-10-13T23:02:26.868Z,4.32
2017-10-13T23:04:54.369Z,6.30
2017-10-13T23:07:21.828Z,10.30
2017-10-13T23:09:49.323Z,8.43
2017-10-13T23:12:16.824Z,5.07
2017-10-13T23:14:45.063Z,6.18
2017-10-13T23:17:12.595Z,15.10
2017-10-13T23:19:40.086Z,8.95
2017-10-13T23:22:07.568Z,5.62
2017-10-13T23:24:35.831Z,8.88
2017-10-13T23:27:03.318Z,7.17
2017-10-13T23:29:31.561Z,3.70
2017-10-13T23:31:59.039Z,5.55
2017-10-13T23:34:27.288Z,5.78
2017-10-13T23:36:54.784Z,3.60
2017-10-13T23:39:23.023Z,3.40
2017-10-13T23:41:50.519Z,8.27
2017-10-13T23:44:18.793Z,8.98
2017-10-13T23:46:47.021Z,4.23
2017-10-13T23:49:15.271Z,11.65
2017-10-13T23:51:42.772Z,3.10
2017-10-13T23:54:10.259Z,13.07
2017-10-13T23:56:38.492Z,7.28
2017-10-13T23:59:05.996Z,6.47
